createdAt,value
2023-09-10T00:00:34.009Z,14.32
2023-09-10T00:03:00.733Z,14.31
2023-09-10T00:05:27.673Z,14.24
2023-09-10T00:07:54.541Z,14.15
2023-09-10T00:10:21.290Z,14.14
2023-09-10T00:12:47.912Z,14.06
2023-09-10T00:15:14.658Z,14.13
2023-09-10T00:17:41.301Z,14.03
2023-09-10T00:20:08.850Z,13.93
2023-09-10T00:22:35.754Z,13.89
2023-09-10T00:25:02.441Z,13.72
2023-09-10T00:27:29.142Z,13.73
2023-09-10T00:29:55.797Z,13.79
2023-09-10T00:32:23.198Z,13.77
2023-09-10T00:34:50.151Z,13.82
2023-09-10T00:37:17.790Z,13.85
2023-09-10T00:39:44.897Z,13.92
2023-09-10T00:42:12.050Z,13.84
2023-09-10T00:44:38.724Z,13.83
2023-09-10T00:47:05.985Z,13.75
2023-09-10T00:49:33.098Z,13.76
2023-09-10T00:52:03.750Z,13.80
2023-09-10T00:54:34.074Z,13.84
2023-09-10T00:57:04.639Z,13.68
2023-09-10T00:59:32.115Z,13.54
2023-09-10T01:02:00.055Z,13.37
2023-09-10T01:04:27.381Z,13.42
2023-09-10T01:06:54.461Z,13.61
2023-09-10T01:09:22.841Z,13.68
2023-09-10T01:12:12.208Z,13.65
2023-09-10T01:14:48.267Z,13.67
2023-09-10T01:17:33.198Z,13.66
2023-09-10T01:20:24.978Z,13.61
2023-09-10T01:23:00.641Z,13.54
2023-09-10T01:25:27.389Z,13.38
2023-09-10T01:27:54.034Z,13.31
2023-09-10T01:30:20.684Z,13.12
2023-09-10T01:32:55.711Z,12.91
2023-09-10T01:35:30.287Z,12.70
2023-09-10T01:38:06.679Z,12.59
2023-09-10T01:40:43.713Z,12.42
2023-09-10T01:43:11.030Z,12.22
2023-09-10T01:45:37.858Z,12.36
2023-09-10T01:48:05.430Z,12.37
2023-09-10T01:50:32.223Z,12.00
2023-09-10T01:53:02.284Z,11.96
2023-09-10T01:55:29.077Z,11.95
2023-09-10T01:58:00.060Z,11.81
2023-09-10T02:00:26.878Z,11.75
2023-09-10T02:02:54.143Z,11.53
2023-09-10T02:05:20.987Z,11.49
2023-09-10T02:07:47.701Z,11.34
2023-09-10T02:10:14.399Z,11.18
2023-09-10T02:12:41.110Z,11.28
2023-09-10T02:15:09.674Z,11.30
2023-09-10T02:17:36.537Z,11.30
2023-09-10T02:20:05.885Z,11.40
2023-09-10T02:22:32.569Z,11.21
2023-09-10T02:25:01.972Z,11.33
2023-09-10T02:27:28.819Z,11.53
2023-09-10T02:29:55.594Z,11.59
2023-09-10T02:32:22.294Z,11.70
2023-09-10T02:34:49.055Z,11.67
2023-09-10T02:37:15.844Z,11.71
2023-09-10T02:39:42.562Z,11.68
2023-09-10T02:42:09.267Z,11.84
2023-09-10T02:44:36.023Z,11.81
2023-09-10T02:47:03.007Z,12.00
2023-09-10T02:49:29.758Z,12.12
2023-09-10T02:51:56.505Z,12.17
2023-09-10T02:54:23.170Z,12.25
2023-09-10T02:56:51.686Z,12.40
2023-09-10T02:59:27.478Z,12.39
2023-09-10T03:01:54.760Z,12.35
2023-09-10T03:04:21.946Z,12.37
2023-09-10T03:06:51.074Z,12.41
2023-09-10T03:09:17.976Z,12.52
2023-09-10T03:11:46.104Z,12.44
2023-09-10T03:14:13.050Z,12.51
2023-09-10T03:16:40.663Z,12.42
2023-09-10T03:19:07.596Z,12.12
2023-09-10T03:21:36.215Z,12.13
2023-09-10T03:24:02.851Z,12.07
2023-09-10T03:26:29.484Z,12.14
2023-09-10T03:28:56.167Z,12.09
2023-09-10T03:31:22.874Z,12.08
2023-09-10T03:33:50.121Z,12.04
2023-09-10T03:36:16.704Z,12.07
2023-09-10T03:38:43.293Z,12.09
2023-09-10T03:41:10.078Z,12.00
2023-09-10T03:43:36.923Z,12.02
2023-09-10T03:46:03.568Z,12.07
2023-09-10T03:48:30.235Z,12.12
2023-09-10T03:50:56.922Z,12.07
2023-09-10T03:53:23.552Z,12.23
2023-09-10T03:55:50.252Z,12.10
2023-09-10T03:58:16.898Z,12.10
2023-09-10T04:00:43.603Z,12.21
2023-09-10T04:03:10.288Z,12.17
2023-09-10T04:05:37.784Z,12.17
2023-09-10T04:08:05.322Z,12.14
2023-09-10T04:10:32.043Z,12.08
2023-09-10T04:12:58.676Z,12.23
2023-09-10T04:15:25.326Z,12.26
2023-09-10T04:17:51.984Z,12.11
2023-09-10T04:20:20.993Z,12.29
2023-09-10T04:22:48.412Z,12.33
2023-09-10T04:25:15.163Z,12.32
2023-09-10T04:27:41.917Z,12.38
2023-09-10T04:30:08.974Z,12.42
2023-09-10T04:32:35.608Z,12.41
2023-09-10T04:35:06.145Z,12.45
2023-09-10T04:37:33.486Z,12.51
2023-09-10T04:40:00.233Z,12.54
2023-09-10T04:42:27.297Z,12.55
2023-09-10T04:44:53.991Z,12.53
2023-09-10T04:47:20.692Z,12.57
2023-09-10T04:49:47.380Z,12.53
2023-09-10T04:52:16.501Z,12.56
2023-09-10T04:54:43.767Z,12.42
2023-09-10T04:57:11.645Z,12.45
2023-09-10T04:59:38.431Z,12.56
2023-09-10T05:02:08.208Z,12.85
2023-09-10T05:04:34.985Z,13.22
2023-09-10T05:07:01.690Z,14.09
2023-09-10T05:09:28.348Z,15.14
2023-09-10T05:11:57.803Z,16.42
2023-09-10T05:14:27.007Z,17.72
2023-09-10T05:16:53.926Z,18.44
2023-09-10T05:19:27.067Z,18.51
2023-09-10T05:21:53.684Z,19.16
2023-09-10T05:24:20.361Z,19.12
2023-09-10T05:26:47.071Z,19.68
2023-09-10T05:29:13.803Z,19.32
2023-09-10T05:31:40.511Z,19.48
2023-09-10T05:34:07.330Z,19.43
2023-09-10T05:36:35.585Z,19.67
2023-09-10T05:39:02.833Z,19.52
2023-09-10T05:41:29.464Z,19.94
2023-09-10T05:43:56.131Z,20.00
2023-09-10T05:46:25.909Z,19.44
2023-09-10T05:48:52.621Z,19.26
2023-09-10T05:51:19.226Z,19.35
2023-09-10T05:53:46.008Z,19.90
2023-09-10T05:56:13.041Z,19.91
2023-09-10T05:58:40.023Z,20.22
2023-09-10T06:01:07.200Z,19.92
2023-09-10T06:03:34.467Z,19.85
2023-09-10T06:06:02.722Z,19.56
2023-09-10T06:08:33.371Z,19.13
2023-09-10T06:11:00.093Z,19.22
2023-09-10T06:13:26.753Z,19.26
2023-09-10T06:15:53.503Z,19.24
2023-09-10T06:18:20.252Z,19.25
2023-09-10T06:20:46.870Z,19.02
2023-09-10T06:23:13.614Z,18.60
2023-09-10T06:25:40.397Z,18.71
2023-09-10T06:28:07.802Z,19.01
2023-09-10T06:30:34.439Z,19.27
2023-09-10T06:33:01.223Z,19.15
2023-09-10T06:35:27.925Z,19.27
2023-09-10T06:37:54.835Z,19.48
2023-09-10T06:40:21.579Z,19.58
2023-09-10T06:42:48.231Z,19.64
2023-09-10T06:45:14.980Z,19.72
2023-09-10T06:47:41.749Z,19.71
2023-09-10T06:50:08.836Z,19.78
2023-09-10T06:52:35.530Z,19.82
2023-09-10T06:55:02.700Z,20.24
2023-09-10T06:57:30.778Z,20.13
2023-09-10T06:59:58.675Z,20.35
2023-09-10T07:02:26.652Z,20.30
2023-09-10T07:04:53.607Z,20.56
2023-09-10T07:07:20.447Z,20.88
2023-09-10T07:09:47.107Z,21.08
2023-09-10T07:12:13.712Z,21.50
2023-09-10T07:14:40.441Z,21.64
2023-09-10T07:17:07.411Z,21.75
2023-09-10T07:19:34.139Z,21.51
2023-09-10T07:22:00.765Z,21.62
2023-09-10T07:24:27.486Z,21.61
2023-09-10T07:26:54.585Z,21.53
2023-09-10T07:29:21.723Z,21.43
2023-09-10T07:31:48.732Z,21.86
2023-09-10T07:34:15.780Z,22.15
2023-09-10T07:36:44.754Z,22.30
2023-09-10T07:39:11.550Z,22.01
2023-09-10T07:41:38.326Z,22.17
2023-09-10T07:44:05.414Z,22.51
2023-09-10T07:46:33.856Z,22.89
2023-09-10T07:49:00.733Z,23.25
2023-09-10T07:51:27.713Z,23.51
2023-09-10T07:53:54.386Z,23.44
2023-09-10T07:56:21.266Z,23.38
2023-09-10T07:58:48.258Z,23.01
2023-09-10T08:01:15.128Z,22.79
2023-09-10T08:03:43.540Z,23.03
2023-09-10T08:06:11.137Z,22.98
2023-09-10T08:08:38.189Z,23.17
2023-09-10T08:11:05.296Z,23.46
2023-09-10T08:13:32.151Z,23.80
2023-09-10T08:15:58.990Z,23.76
2023-09-10T08:18:25.811Z,23.83
2023-09-10T08:20:52.697Z,23.97
2023-09-10T08:23:19.609Z,23.84
2023-09-10T08:25:46.398Z,23.88
2023-09-10T08:28:13.287Z,23.92
2023-09-10T08:30:40.057Z,23.86
2023-09-10T08:33:07.084Z,23.94
2023-09-10T08:35:46.352Z,24.05
2023-09-10T08:38:13.717Z,23.98
2023-09-10T08:40:46.569Z,24.41
2023-09-10T08:43:16.795Z,24.81
2023-09-10T08:45:45.015Z,25.13
2023-09-10T08:48:14.832Z,25.40
2023-09-10T08:50:42.199Z,25.43
2023-09-10T08:53:15.178Z,25.30
2023-09-10T08:55:47.696Z,25.03
2023-09-10T08:58:15.446Z,25.16
2023-09-10T09:00:44.506Z,24.89
2023-09-10T09:03:11.774Z,24.74
2023-09-10T09:05:39.718Z,25.10
2023-09-10T09:08:36.819Z,25.10
2023-09-10T09:11:08.170Z,25.43
2023-09-10T09:13:38.542Z,25.55
2023-09-10T09:16:06.928Z,25.52
2023-09-10T09:18:37.444Z,25.30
2023-09-10T09:21:13.604Z,25.48
2023-09-10T09:23:51.472Z,25.08
2023-09-10T09:26:19.833Z,24.73
2023-09-10T09:28:47.469Z,24.63
2023-09-10T09:31:14.356Z,24.26
2023-09-10T09:33:41.837Z,24.65
2023-09-10T09:36:12.589Z,24.52
2023-09-10T09:38:47.188Z,24.60
2023-09-10T09:41:18.334Z,24.87
2023-09-10T09:43:46.086Z,24.80
2023-09-10T09:46:14.330Z,24.53
2023-09-10T09:48:41.458Z,24.73
2023-09-10T09:51:08.653Z,25.01
2023-09-10T09:53:37.250Z,25.20
2023-09-10T09:56:05.883Z,25.37
2023-09-10T09:58:33.473Z,25.12
2023-09-10T10:01:01.257Z,25.17
2023-09-10T10:03:35.723Z,25.09
2023-09-10T10:06:03.044Z,25.00
2023-09-10T10:08:30.904Z,24.83
2023-09-10T10:10:58.428Z,25.18
2023-09-10T10:13:27.378Z,25.13
2023-09-10T10:15:56.637Z,25.22
2023-09-10T10:18:25.347Z,25.26
2023-09-10T10:20:53.371Z,24.86
2023-09-10T10:23:39.055Z,24.80
2023-09-10T10:26:07.631Z,24.60
2023-09-10T10:28:38.696Z,25.12
2023-09-10T10:31:14.237Z,25.33
2023-09-10T10:33:51.139Z,25.51
2023-09-10T10:36:49.440Z,25.67
2023-09-10T10:39:18.180Z,25.63
2023-09-10T10:41:49.241Z,25.64
2023-09-10T10:44:31.883Z,25.42
2023-09-10T10:47:03.943Z,25.42
2023-09-10T10:49:32.286Z,25.76
2023-09-10T10:52:03.986Z,25.27
2023-09-10T10:54:31.514Z,25.03
2023-09-10T10:56:58.714Z,25.38
2023-09-10T10:59:26.366Z,25.70
2023-09-10T11:02:14.565Z,25.75
2023-09-10T11:04:55.482Z,25.78
2023-09-10T11:07:23.682Z,25.99
2023-09-10T11:09:50.822Z,25.86
2023-09-10T11:12:17.959Z,25.75
2023-09-10T11:15:06.608Z,25.94
2023-09-10T11:17:34.886Z,25.68
2023-09-10T11:20:02.016Z,25.62
2023-09-10T11:22:29.044Z,25.47
2023-09-10T11:25:08.787Z,25.42
2023-09-10T11:27:35.935Z,25.55
2023-09-10T11:30:10.001Z,25.74
2023-09-10T11:32:37.883Z,25.52
2023-09-10T11:35:20.192Z,25.94
2023-09-10T11:37:51.795Z,26.04
2023-09-10T11:40:20.232Z,25.98
2023-09-10T11:42:48.958Z,25.60
2023-09-10T11:45:17.427Z,26.06
2023-09-10T11:47:46.505Z,25.96
2023-09-10T11:50:15.637Z,25.96
2023-09-10T11:52:42.732Z,26.19
2023-09-10T11:55:12.604Z,26.03
2023-09-10T11:57:43.167Z,26.06
2023-09-10T12:00:13.404Z,25.58
2023-09-10T12:02:41.735Z,25.42
2023-09-10T12:05:09.912Z,25.40
2023-09-10T12:07:37.265Z,25.82
2023-09-10T12:10:04.981Z,25.84
2023-09-10T12:12:38.781Z,25.44
2023-09-10T12:15:06.518Z,25.44
2023-09-10T12:17:33.636Z,25.58
2023-09-10T12:20:01.152Z,25.74
2023-09-10T12:22:28.017Z,25.97
2023-09-10T12:24:54.944Z,25.75
2023-09-10T12:27:22.491Z,25.50
2023-09-10T12:29:49.280Z,25.77
2023-09-10T12:32:16.351Z,25.92
2023-09-10T12:34:43.339Z,25.50
2023-09-10T12:37:15.800Z,25.48
2023-09-10T12:39:45.339Z,25.18
2023-09-10T12:42:12.312Z,25.43
2023-09-10T12:44:42.705Z,25.68
2023-09-10T12:47:13.977Z,25.22
2023-09-10T12:49:47.089Z,25.23
2023-09-10T12:52:14.208Z,25.51
2023-09-10T12:54:41.083Z,25.77
2023-09-10T12:57:09.522Z,25.94
2023-09-10T12:59:37.663Z,26.03
2023-09-10T13:02:06.678Z,25.58
2023-09-10T13:04:33.936Z,25.53
2023-09-10T13:07:01.093Z,25.67
2023-09-10T13:09:30.316Z,25.66
2023-09-10T13:11:59.823Z,25.47
2023-09-10T13:14:26.723Z,25.32
2023-09-10T13:16:53.715Z,25.56
2023-09-10T13:19:20.798Z,25.62
2023-09-10T13:21:47.786Z,25.49
2023-09-10T13:24:16.411Z,25.44
2023-09-10T13:26:45.001Z,25.79
2023-09-10T13:29:13.174Z,25.69
2023-09-10T13:31:40.168Z,25.42
2023-09-10T13:34:07.303Z,25.45
2023-09-10T13:36:34.390Z,25.58
2023-09-10T13:39:04.102Z,25.39
2023-09-10T13:41:31.132Z,25.56
2023-09-10T13:44:00.255Z,25.60
2023-09-10T13:46:27.343Z,25.72
2023-09-10T13:48:56.950Z,25.59
2023-09-10T13:51:25.742Z,25.72
2023-09-10T13:53:52.734Z,25.68
2023-09-10T13:56:19.641Z,25.73
2023-09-10T13:58:49.282Z,25.44
2023-09-10T14:01:16.189Z,25.46
2023-09-10T14:03:43.214Z,25.39
2023-09-10T14:06:15.933Z,25.52
2023-09-10T14:08:45.378Z,25.37
2023-09-10T14:11:12.272Z,25.35
2023-09-10T14:13:42.312Z,25.54
2023-09-10T14:16:09.788Z,25.47
2023-09-10T14:18:41.917Z,25.49
2023-09-10T14:21:11.345Z,25.33
2023-09-10T14:23:38.454Z,25.56
2023-09-10T14:26:07.284Z,25.53
2023-09-10T14:28:34.203Z,25.14
2023-09-10T14:31:02.621Z,25.17
2023-09-10T14:33:32.933Z,25.22
2023-09-10T14:36:01.213Z,25.12
2023-09-10T14:38:33.237Z,24.91
2023-09-10T14:41:00.205Z,25.08
2023-09-10T14:43:29.618Z,25.14
2023-09-10T14:45:58.135Z,25.06
2023-09-10T14:48:27.549Z,25.10
2023-09-10T14:50:54.464Z,25.08
2023-09-10T14:53:24.125Z,24.68
2023-09-10T14:55:51.083Z,24.61
2023-09-10T14:58:19.773Z,24.75
2023-09-10T15:00:50.688Z,24.86
2023-09-10T15:03:21.907Z,24.87
2023-09-10T15:05:49.114Z,24.79
2023-09-10T15:08:16.088Z,24.75
2023-09-10T15:10:45.540Z,24.60
2023-09-10T15:13:12.532Z,24.49
2023-09-10T15:15:43.189Z,24.46
2023-09-10T15:18:10.338Z,24.66
2023-09-10T15:20:37.276Z,24.60
2023-09-10T15:23:05.557Z,24.60
2023-09-10T15:25:35.257Z,24.41
2023-09-10T15:28:13.632Z,24.61
2023-09-10T15:30:40.568Z,24.51
2023-09-10T15:33:10.275Z,24.35
2023-09-10T15:35:37.212Z,24.33
2023-09-10T15:38:06.897Z,24.29
2023-09-10T15:40:37.625Z,24.25
2023-09-10T15:43:04.677Z,24.16
2023-09-10T15:45:34.136Z,24.26
2023-09-10T15:48:02.190Z,24.13
2023-09-10T15:50:29.142Z,24.21
2023-09-10T15:52:56.170Z,23.96
2023-09-10T15:55:25.894Z,23.93
2023-09-10T15:57:58.693Z,23.67
2023-09-10T16:00:28.339Z,23.53
2023-09-10T16:02:57.216Z,23.57
2023-09-10T16:05:27.128Z,23.50
2023-09-10T16:07:54.101Z,23.47
2023-09-10T16:10:22.037Z,23.46
2023-09-10T16:12:48.997Z,23.45
2023-09-10T16:15:16.108Z,23.46
2023-09-10T16:17:47.656Z,23.40
2023-09-10T16:20:19.946Z,23.37
2023-09-10T16:22:47.906Z,23.20
2023-09-10T16:25:14.813Z,23.17
2023-09-10T16:27:42.351Z,23.07
2023-09-10T16:30:12.577Z,23.04
2023-09-10T16:32:43.782Z,22.93
2023-09-10T16:35:11.077Z,22.77
2023-09-10T16:37:39.685Z,22.74
2023-09-10T16:40:07.236Z,22.66
2023-09-10T16:42:34.180Z,22.61
2023-09-10T16:45:01.762Z,22.49
2023-09-10T16:47:28.698Z,22.45
2023-09-10T16:49:57.425Z,22.27
2023-09-10T16:52:24.292Z,22.18
2023-09-10T16:54:52.965Z,22.10
2023-09-10T16:57:19.880Z,21.96
2023-09-10T16:59:49.435Z,21.82
2023-09-10T17:02:22.043Z,21.73
2023-09-10T17:04:49.361Z,21.74
2023-09-10T17:07:17.896Z,21.74
2023-09-10T17:09:48.155Z,21.67
2023-09-10T17:14:58.442Z,21.60
2023-09-10T17:17:28.906Z,21.41
2023-09-10T17:20:00.589Z,21.46
2023-09-10T17:22:27.511Z,21.27
2023-09-10T17:24:54.387Z,21.18
2023-09-10T17:27:23.312Z,20.96
2023-09-10T17:29:58.039Z,21.07
2023-09-10T17:32:25.134Z,20.90
2023-09-10T17:34:54.864Z,20.97
2023-09-10T17:37:24.318Z,20.76
2023-09-10T17:39:54.048Z,20.76
2023-09-10T17:42:22.153Z,20.58
2023-09-10T17:44:57.390Z,20.68
2023-09-10T17:47:31.887Z,20.67
2023-09-10T17:50:07.137Z,20.45
2023-09-10T17:52:37.696Z,20.47
2023-09-10T17:55:11.581Z,20.49
2023-09-10T17:57:38.517Z,20.48
2023-09-10T18:00:10.777Z,20.53
2023-09-10T18:02:40.929Z,20.59
2023-09-10T18:05:09.317Z,20.51
2023-09-10T18:07:40.246Z,20.34
2023-09-10T18:10:07.805Z,20.34
2023-09-10T18:12:35.768Z,20.41
2023-09-10T18:15:02.784Z,20.39
2023-09-10T18:17:34.107Z,20.40
2023-09-10T18:20:03.853Z,20.39
2023-09-10T18:22:35.354Z,20.28
2023-09-10T18:25:02.715Z,20.24
2023-09-10T18:27:31.527Z,20.28
2023-09-10T18:29:58.381Z,20.08
2023-09-10T18:32:30.108Z,20.17
2023-09-10T18:34:58.141Z,20.19
2023-09-10T18:37:27.297Z,20.06
2023-09-10T18:39:54.305Z,20.13
2023-09-10T18:42:21.261Z,20.14
2023-09-10T18:44:48.199Z,20.16
2023-09-10T18:47:17.339Z,20.10
2023-09-10T18:49:44.423Z,20.09
2023-09-10T18:52:23.782Z,20.09
2023-09-10T18:54:53.698Z,19.96
2023-09-10T18:57:20.649Z,20.07
2023-09-10T18:59:50.564Z,20.02
2023-09-10T19:02:30.741Z,20.08
2023-09-10T19:04:59.476Z,20.03
2023-09-10T19:07:26.583Z,20.01
2023-09-10T19:09:56.681Z,19.98
2023-09-10T19:12:23.708Z,19.91
2023-09-10T19:14:51.071Z,19.78
2023-09-10T19:20:09.000Z,19.32
2023-09-10T19:22:37.192Z,19.66
2023-09-10T19:25:07.996Z,19.62
2023-09-10T19:27:37.079Z,19.49
2023-09-10T19:30:05.291Z,19.37
2023-09-10T19:32:34.255Z,19.31
2023-09-10T19:35:05.315Z,19.19
2023-09-10T19:37:33.571Z,19.03
2023-09-10T19:40:02.948Z,18.87
2023-09-10T19:42:30.329Z,18.40
2023-09-10T19:45:04.397Z,18.79
2023-09-10T19:47:35.951Z,18.67
2023-09-10T19:50:07.905Z,18.65
2023-09-10T19:52:42.215Z,18.54
2023-09-10T19:55:10.065Z,18.44
2023-09-10T19:57:37.923Z,18.36
2023-09-10T20:00:06.017Z,18.38
2023-09-10T20:02:33.609Z,18.42
2023-09-10T20:05:02.439Z,18.41
2023-09-10T20:07:33.150Z,18.45
2023-09-10T20:10:01.297Z,18.39
2023-09-10T20:12:28.352Z,18.29
2023-09-10T20:14:55.574Z,18.38
2023-09-10T20:17:24.943Z,18.40
2023-09-10T20:19:52.747Z,18.37
2023-09-10T20:22:20.806Z,18.33
2023-09-10T20:24:47.754Z,18.25
2023-09-10T20:27:18.041Z,18.27
2023-09-10T20:29:46.802Z,18.18
2023-09-10T20:32:13.700Z,18.25
2023-09-10T20:34:44.917Z,18.09
2023-09-10T20:37:11.781Z,17.90
2023-09-10T20:39:38.690Z,17.81
2023-09-10T20:42:06.283Z,17.81
2023-09-10T20:44:33.985Z,17.85
2023-09-10T20:47:05.712Z,17.84
2023-09-10T20:49:35.244Z,17.79
2023-09-10T20:52:03.912Z,17.78
2023-09-10T20:54:43.355Z,17.74
2023-09-10T20:57:15.724Z,17.65
2023-09-10T20:59:42.623Z,17.69
2023-09-10T21:04:54.709Z,17.61
2023-09-10T21:07:21.998Z,17.64
2023-09-10T21:09:49.803Z,17.53
2023-09-10T21:12:20.064Z,17.58
2023-09-10T21:14:50.033Z,17.64
2023-09-10T21:17:22.650Z,17.50
2023-09-10T21:19:52.458Z,17.58
2023-09-10T21:22:19.417Z,17.57
2023-09-10T21:24:48.182Z,17.47
2023-09-10T21:27:15.045Z,17.39
2023-09-10T21:29:41.880Z,17.41
2023-09-10T21:32:09.925Z,17.27
2023-09-10T21:34:36.879Z,17.32
2023-09-10T21:37:06.777Z,17.27
2023-09-10T21:39:33.657Z,17.21
2023-09-10T21:42:01.825Z,17.13
2023-09-10T21:44:29.024Z,16.94
2023-09-10T21:46:58.036Z,16.85
2023-09-10T21:49:30.863Z,16.74
2023-09-10T21:52:00.846Z,16.76
2023-09-10T21:54:35.238Z,16.61
2023-09-10T21:57:04.664Z,16.70
2023-09-10T21:59:39.924Z,16.68
2023-09-10T22:02:07.116Z,16.54
2023-09-10T22:04:34.120Z,16.38
2023-09-10T22:07:01.830Z,16.41
2023-09-10T22:09:28.949Z,16.06
2023-09-10T22:11:55.809Z,16.05
2023-09-10T22:14:22.666Z,15.98
2023-09-10T22:16:52.237Z,15.87
2023-09-10T22:19:27.673Z,15.93
2023-09-10T22:21:54.895Z,15.89
2023-09-10T22:24:21.816Z,15.73
2023-09-10T22:26:48.733Z,15.78
2023-09-10T22:29:15.805Z,15.73
2023-09-10T22:31:43.437Z,15.59
2023-09-10T22:34:10.324Z,15.25
2023-09-10T22:36:38.862Z,15.61
2023-09-10T22:39:07.693Z,15.54
2023-09-10T22:41:34.581Z,15.49
2023-09-10T22:44:01.430Z,15.45
2023-09-10T22:46:28.906Z,15.49
2023-09-10T22:48:55.889Z,15.40
2023-09-10T22:51:23.102Z,15.24
2023-09-10T22:53:52.531Z,15.09
2023-09-10T22:56:21.750Z,15.05
2023-09-10T22:58:48.946Z,14.98
2023-09-10T23:01:17.949Z,14.99
2023-09-10T23:03:45.150Z,15.04
2023-09-10T23:06:12.536Z,15.02
2023-09-10T23:08:40.121Z,15.17
2023-09-10T23:11:07.337Z,15.24
2023-09-10T23:13:35.715Z,15.34
2023-09-10T23:16:03.470Z,15.41
2023-09-10T23:18:30.287Z,15.38
2023-09-10T23:20:57.004Z,15.48
2023-09-10T23:23:23.779Z,15.54
2023-09-10T23:25:50.542Z,15.56
2023-09-10T23:28:17.334Z,15.60
2023-09-10T23:30:46.895Z,15.61
2023-09-10T23:33:13.613Z,15.54
2023-09-10T23:35:40.593Z,15.55
2023-09-10T23:38:08.269Z,15.45
2023-09-10T23:40:37.308Z,15.25
2023-09-10T23:43:04.050Z,15.26
2023-09-10T23:45:30.716Z,15.27
2023-09-10T23:47:57.559Z,15.22
2023-09-10T23:50:24.298Z,15.17
2023-09-10T23:52:50.919Z,15.16
2023-09-10T23:55:17.802Z,14.86
2023-09-10T23:57:44.591Z,15.14
